Terminal Aerodrome Forecast
Issued by NWS

Home | Current Version | Previous Version | Text Only | Print | Product List | Glossary On
Versions: 1 2 3 4 5 6 7 8 9 10 11 12 13 14 15 16 17 18 19
309
FTUS44 KCRP 280538
TAFALI
TAF
KALI 280538Z 2806/2906 15005KT P6SM OVC025
      TEMPO 2810/2813 5SM BR
     FM281500 15012G18KT P6SM SCT025 BKN040
     FM282000 14018G25KT P6SM SCT040 BKN150
     FM290200 14012KT P6SM VCSH SCT015 BKN025 OVC100 PROB30
      2903/2906 VRB15G30KT 3SM TSRA BKN012CB OVC020=

USA.gov is the U.S. government's official web portal to all federal, state and local government web resources and services.